This is the latest recevied weather packets stored in our database for station/object KA9CBS. If no packets are shown the sender has not sent any weather packets the latest 10 day(s).
| Time | Temp. | Humidity | Pressure | Rain* | Wind** | Luminosity | Snow |
|---|---|---|---|---|---|---|---|
| 1787959327 | 28.89° C | 56% | 1020.1 hPa | 0 mm | - | 53 W/m² | - |
| 1787959022 | 28.89° C | 55% | 1020 hPa | 0 mm | - | 53 W/m² | - |
| 1787958717 | 28.89° C | 54% | 1019.9 hPa | 0 mm | - | 60 W/m² | - |
| 1787958412 | 28.89° C | 54% | 1020 hPa | 0 mm | - | 78 W/m² | - |
| 1787958108 | 28.89° C | 54% | 1020 hPa | 0 mm | - | 88 W/m² | - |
| 1787957801 | 28.89° C | 56% | 1019.8 hPa | 0 mm | - | 95 W/m² | - |
| 1787957496 | 29.44° C | 54% | 1019.9 hPa | 0 mm | - | 83 W/m² | - |
| 1787957196 | 29.44° C | 51% | 1020 hPa | 0 mm | - | 87 W/m² | - |
| 1787956892 | 29.44° C | 54% | 1020.1 hPa | 0 mm | - | 69 W/m² | - |
| 1787956586 | 29.44° C | 54% | 1020 hPa | 0 mm | - | 66 W/m² | - |
| 1787956280 | 29.44° C | 50% | 1020.1 hPa | 0 mm | - | 66 W/m² | - |
| 1787955976 | 29.44° C | 51% | 1020.2 hPa | 0 mm | - | 65 W/m² | - |
| 1787955671 | 29.44° C | 50% | 1020.3 hPa | 0 mm | - | 68 W/m² | - |
| 1787955367 | 30° C | 52% | 1020 hPa | 0 mm | - | 66 W/m² | - |
| 1787955066 | 30° C | 52% | 1020.1 hPa | 0 mm | - | 65 W/m² | - |
| 1787954762 | 29.44° C | 52% | 1020.2 hPa | 0 mm | - | 69 W/m² | - |
| 1787954457 | 29.44° C | 52% | 1020.3 hPa | 0 mm | - | 72 W/m² | - |
| 1787954156 | 28.89° C | 54% | 1020.2 hPa | 0 mm | - | 124 W/m² | - |
| 1787953856 | 29.44° C | 53% | 1020.2 hPa | 0 mm | - | 91 W/m² | - |
| 1787953551 | 30° C | 53% | 1020.1 hPa | 0 mm | - | 208 W/m² | - |
| 1787953250 | 29.44° C | 52% | 1020.1 hPa | 0 mm | - | 202 W/m² | - |
| 1787952948 | 30° C | 52% | 1020.5 hPa | 0 mm | - | 363 W/m² | - |
| 1787952643 | 30° C | 53% | 1020.2 hPa | 0 mm | - | 294 W/m² | - |
| 1787952342 | 28.89° C | 50% | 1020.4 hPa | 0 mm | - | 160 W/m² | - |
| 1787952039 | 28.33° C | 55% | 1020.4 hPa | 0 mm | - | 145 W/m² | - |
* Rain latest hour (hover to see other rain measurements)
** Current wind speed in m/s (hover to see current wind gust speed)